Saint George Island, Florida
Current Conditions -  °F | °C
As of 4:53 AM on Thursday 29 Jan 2015 (Local Time) from KAAF Reporting Station
Clear Clear  
Wind Chill: 37°   Ceiling: Unl
Heat Index: 41°   Visibility: 10mi
Dew Point: 35°   Wind: 6mph
Humidity: 79%   Direction: 40°NE
Pressure: 30.29"   Gusts: NA
Location:  29.8852°N, 84.8748°W
Report Text: KAAF 290953Z AUTO 04005KT 10SM CLR 05/02 A3029 RMK AO2 SLP256 T00500017 TSNO
Loading
Personal Weather Stations






























Interactive Weather Map New forecast layout! Learn more

10-Day Weather Forecast

Advertisements
Track Severe Weather on mobile